Time;durP1;ratioP1;P1;durP2;ratioP2;P2;SDS_P1;SDS_P2;PMS_P1;PMS_P2;Temp;Humidity;BMP_temperature;BMP_pressure;BME280_temperature;BME280_humidity;BME280_pressure;Samples;Min_cycle;Max_cycle;Signal;HPM_P1;HPM_P2
2021/11/25 00:00:29;;;;;;;0.00;0.00;;;;;;;3.40;75.84;99864.38;5091316;28;20035;-69
2021/11/25 00:02:54;;;;;;;0.00;0.00;;;;;;;3.28;75.82;99848.31;5081031;28;20024;-69
2021/11/25 00:05:20;;;;;;;0.00;0.00;;;;;;;3.28;75.19;99848.31;5091773;28;20506;-71
2021/11/25 00:07:45;;;;;;;0.00;0.00;;;;;;;3.30;75.17;99867.44;5091040;28;20441;-70
2021/11/25 00:10:11;;;;;;;0.00;0.00;;;;;;;3.33;74.80;99867.00;5091752;28;20039;-70
2021/11/25 00:12:37;;;;;;;0.00;0.00;;;;;;;3.33;75.28;99872.31;5072501;28;20039;-70
2021/11/25 00:15:05;;;;;;;0.00;0.00;;;;;;;3.31;75.63;99871.72;5091776;28;20035;-70
2021/11/25 00:17:30;;;;;;;0.10;0.10;;;;;;;3.29;75.32;99879.03;5091451;28;20039;-69
2021/11/25 00:19:56;;;;;;;0.00;0.00;;;;;;;3.24;74.92;99865.63;5091255;28;20039;-69
2021/11/25 00:22:22;;;;;;;0.00;0.00;;;;;;;3.23;74.92;99867.44;5085449;28;20449;-69
2021/11/25 00:24:47;;;;;;;0.00;0.00;;;;;;;3.15;74.70;99865.03;5055371;28;20020;-70
2021/11/25 00:27:13;;;;;;;0.00;0.00;;;;;;;3.08;74.21;99861.59;5084781;28;20073;-70
2021/11/25 00:29:38;;;;;;;0.00;0.00;;;;;;;2.98;73.89;99851.44;5090914;28;20032;-70
2021/11/25 00:32:04;;;;;;;0.00;0.00;;;;;;;3.02;73.70;99871.97;5090932;28;20056;-70
2021/11/25 00:34:30;;;;;;;0.00;0.00;;;;;;;2.97;73.49;99870.97;5091240;28;20028;-70
2021/11/25 00:36:55;;;;;;;0.00;0.00;;;;;;;2.88;73.27;99863.25;5090635;28;20039;-69
2021/11/25 00:39:21;;;;;;;0.00;0.00;;;;;;;2.91;73.04;99861.22;5090411;28;20039;-69
2021/11/25 00:41:48;;;;;;;0.00;0.00;;;;;;;2.77;73.10;99847.19;5073195;28;20497;-69
2021/11/25 00:44:14;;;;;;;0.00;0.00;;;;;;;2.79;73.47;99859.19;5064547;28;20075;-69
2021/11/25 00:46:40;;;;;;;0.00;0.00;;;;;;;2.70;73.92;99845.38;5087538;28;20483;-69
2021/11/25 00:49:05;;;;;;;0.00;0.00;;;;;;;2.80;74.04;99860.00;5090776;28;20030;-69
2021/11/25 00:51:31;;;;;;;0.00;0.00;;;;;;;2.72;73.77;99842.53;5084977;28;20056;-69
2021/11/25 00:53:57;;;;;;;0.00;0.00;;;;;;;2.77;73.72;99855.13;5074196;28;20031;-69
2021/11/25 00:56:22;;;;;;;0.00;0.00;;;;;;;2.70;73.80;99844.56;5090175;28;20035;-69
2021/11/25 00:58:48;;;;;;;0.00;0.00;;;;;;;2.68;73.49;99844.75;5091193;28;20107;-70
2021/11/25 01:01:14;;;;;;;0.00;0.00;;;;;;;2.67;73.63;99850.25;5090753;28;20024;-69
2021/11/25 01:03:40;;;;;;;0.00;0.00;;;;;;;2.59;73.62;99847.81;5089792;28;20052;-69
2021/11/25 01:06:06;;;;;;;0.00;0.00;;;;;;;2.61;73.60;99851.88;5090315;28;20032;-71
2021/11/25 01:08:31;;;;;;;0.00;0.00;;;;;;;2.60;73.65;99846.78;5088025;28;20489;-71
2021/11/25 01:10:57;;;;;;;0.00;0.00;;;;;;;2.55;73.76;99844.75;5087728;28;20032;-69
2021/11/25 01:13:23;;;;;;;0.00;0.00;;;;;;;2.43;73.72;99843.75;5072413;28;20509;-72
2021/11/25 01:15:49;;;;;;;0.00;0.00;;;;;;;2.42;73.62;99837.66;5090153;28;20032;-69
2021/11/25 01:18:16;;;;;;;0.00;0.00;;;;;;;2.43;73.60;99841.94;5077198;28;20071;-69
2021/11/25 01:20:43;;;;;;;0.00;0.00;;;;;;;2.38;74.16;99841.72;5079989;28;20032;-70
2021/11/25 01:23:13;;;;;;;0.00;0.00;;;;;;;2.36;73.75;99841.13;5090951;28;20056;-71
2021/11/25 01:25:39;;;;;;;0.00;0.00;;;;;;;2.43;73.77;99852.50;5089850;28;20107;-71
2021/11/25 01:28:12;;;;;;;0.00;0.00;;;;;;;2.34;73.72;99841.28;5090139;28;20036;-71
2021/11/25 01:30:41;;;;;;;0.00;0.00;;;;;;;2.39;73.88;99854.72;5090290;28;20027;-70
2021/11/25 01:33:08;;;;;;;0.00;0.00;;;;;;;2.31;73.78;99836.44;5090720;28;20040;-71
2021/11/25 01:35:33;;;;;;;0.00;0.00;;;;;;;2.40;73.71;99844.97;5089314;28;20064;-70
2021/11/25 01:37:59;;;;;;;0.00;0.00;;;;;;;2.38;73.89;99847.81;5090141;28;20064;-70
2021/11/25 01:40:25;;;;;;;0.00;0.00;;;;;;;2.30;74.30;99832.16;5090492;28;20462;-70
2021/11/25 01:42:51;;;;;;;0.00;0.00;;;;;;;2.37;74.33;99842.75;5085314;28;20028;-70
2021/11/25 01:45:16;;;;;;;0.00;0.00;;;;;;;2.38;74.21;99841.72;5088858;28;20051;-71
2021/11/25 01:47:45;;;;;;;0.00;0.00;;;;;;;2.37;73.67;99848.03;5090380;28;20032;-71
2021/11/25 01:50:15;;;;;;;0.00;0.00;;;;;;;2.29;73.74;99827.91;5090407;28;20371;-71
2021/11/25 01:52:42;;;;;;;0.03;0.03;;;;;;;2.28;73.78;99830.75;5090253;28;20503;-69
2021/11/25 01:55:08;;;;;;;0.00;0.00;;;;;;;2.33;73.84;99834.41;5090589;28;20403;-71
2021/11/25 01:57:34;;;;;;;0.00;0.00;;;;;;;2.33;74.30;99839.69;5074279;28;20069;-69
2021/11/25 01:59:59;;;;;;;0.00;0.00;;;;;;;2.27;73.82;99840.50;5070400;28;20029;-69
2021/11/25 02:02:25;;;;;;;0.00;0.00;;;;;;;2.16;74.23;99833.16;5087828;28;20028;-71
2021/11/25 02:04:51;;;;;;;0.20;0.20;;;;;;;2.19;74.01;99827.50;5090595;28;20052;-70
2021/11/25 02:07:17;;;;;;;0.00;0.00;;;;;;;2.17;74.23;99824.25;5092783;28;20029;-71
2021/11/25 02:09:44;;;;;;;0.30;0.30;;;;;;;2.10;74.13;99823.41;5094033;28;20020;-69
2021/11/25 02:12:09;;;;;;;0.10;0.10;;;;;;;2.18;74.38;99839.06;5093542;28;20054;-68
2021/11/25 02:14:35;;;;;;;0.10;0.10;;;;;;;2.08;74.91;99823.63;5093751;28;20036;-71
2021/11/25 02:17:01;;;;;;;0.00;0.00;;;;;;;2.08;74.86;99820.97;5093561;28;20027;-71
2021/11/25 02:19:28;;;;;;;0.00;0.00;;;;;;;2.11;75.23;99823.22;5093622;28;20024;-72
2021/11/25 02:21:53;;;;;;;0.00;0.00;;;;;;;2.12;75.24;99816.91;5093953;28;20024;-70
2021/11/25 02:24:19;;;;;;;0.00;0.00;;;;;;;2.20;75.66;99831.75;5090719;28;20016;-70
2021/11/25 02:26:44;;;;;;;0.00;0.00;;;;;;;2.14;75.66;99814.91;5086019;28;20115;-71
2021/11/25 02:29:10;;;;;;;0.00;0.00;;;;;;;2.20;75.44;99808.81;5093475;28;20402;-70
2021/11/25 02:31:35;;;;;;;0.00;0.00;;;;;;;2.32;75.62;99838.06;5093079;28;20027;-69
2021/11/25 02:34:01;;;;;;;0.00;0.00;;;;;;;2.25;75.69;99813.50;5093237;28;20055;-69
2021/11/25 02:36:26;;;;;;;0.00;0.00;;;;;;;2.31;75.87;99819.81;5075306;28;20024;-69
2021/11/25 02:38:53;;;;;;;0.00;0.00;;;;;;;2.30;75.83;99811.06;5093412;28;20493;-68
2021/11/25 02:41:18;;;;;;;0.00;0.00;;;;;;;2.44;75.68;99818.97;5093379;28;20027;-68
2021/11/25 02:43:44;;;;;;;0.00;0.00;;;;;;;2.43;75.68;99818.19;5092889;28;20035;-68
2021/11/25 02:46:13;;;;;;;0.00;0.00;;;;;;;2.38;76.25;99802.94;5092215;28;20089;-69
2021/11/25 02:48:46;;;;;;;0.00;0.00;;;;;;;2.51;76.08;99817.94;5091919;28;20032;-69
2021/11/25 02:51:19;;;;;;;0.00;0.00;;;;;;;2.44;75.81;99795.22;5093083;28;20028;-70
2021/11/25 02:53:47;;;;;;;0.00;0.00;;;;;;;2.48;76.60;99799.06;5075105;28;20402;-69
2021/11/25 02:56:15;;;;;;;0.10;0.10;;;;;;;2.33;76.61;99779.00;5093021;28;20108;-68
2021/11/25 02:58:42;;;;;;;0.00;0.00;;;;;;;2.50;76.25;99789.13;5074330;28;20032;-69
2021/11/25 03:01:12;;;;;;;0.00;0.00;;;;;;;2.54;76.51;99796.44;5092290;28;20028;-69
2021/11/25 03:03:38;;;;;;;0.00;0.00;;;;;;;2.63;76.71;99796.22;5092398;28;20048;-68
2021/11/25 03:06:03;;;;;;;0.00;0.00;;;;;;;2.63;76.31;99786.47;5093155;28;20085;-69
2021/11/25 03:08:29;;;;;;;0.00;0.00;;;;;;;2.65;76.50;99781.81;5073849;28;20036;-68
2021/11/25 03:11:00;;;;;;;0.00;0.00;;;;;;;2.71;76.29;99788.91;5093024;28;20036;-69
2021/11/25 03:13:26;;;;;;;0.00;0.00;;;;;;;2.78;76.47;99796.00;5090258;28;20028;-69
2021/11/25 03:15:52;;;;;;;0.00;0.00;;;;;;;2.72;75.97;99785.25;5092218;28;20059;-69
2021/11/25 03:18:18;;;;;;;0.00;0.00;;;;;;;2.65;76.40;99778.31;5090491;28;20479;-70
2021/11/25 03:20:47;;;;;;;0.00;0.00;;;;;;;2.68;76.54;99777.94;5091866;28;20035;-70
2021/11/25 03:23:15;;;;;;;0.00;0.00;;;;;;;2.59;76.01;99763.31;5072494;28;20116;-69
2021/11/25 03:25:43;;;;;;;0.00;0.00;;;;;;;2.72;75.59;99793.16;5085227;28;20036;-70
2021/11/25 03:28:09;;;;;;;0.00;0.00;;;;;;;2.68;75.42;99780.56;5079501;28;20073;-70
2021/11/25 03:30:36;;;;;;;1.10;1.10;;;;;;;2.71;75.82;99783.63;5073869;28;20036;-69
2021/11/25 03:33:04;;;;;;;0.10;0.10;;;;;;;2.67;75.76;99768.38;5091894;28;20032;-69
2021/11/25 03:35:29;;;;;;;0.00;0.00;;;;;;;2.68;75.97;99770.81;5092195;28;20062;-69
2021/11/25 03:37:55;;;;;;;0.00;0.00;;;;;;;2.44;76.13;99742.41;5091847;28;20031;-68
2021/11/25 03:40:21;;;;;;;0.00;0.00;;;;;;;2.69;76.32;99780.34;5092180;28;20028;-69
2021/11/25 03:42:46;;;;;;;0.00;0.00;;;;;;;2.63;76.53;99765.34;5072640;28;20043;-70
2021/11/25 03:45:12;;;;;;;0.00;0.00;;;;;;;2.72;76.40;99782.59;5092147;28;20407;-69
2021/11/25 03:47:37;;;;;;;0.00;0.00;;;;;;;2.62;76.99;99765.56;5073556;28;20119;-71
2021/11/25 03:50:04;;;;;;;0.00;0.00;;;;;;;2.70;77.25;99781.19;5092216;28;20054;-71
2021/11/25 03:52:29;;;;;;;0.00;0.00;;;;;;;2.64;77.33;99772.25;5091924;28;20044;-71
2021/11/25 03:54:55;;;;;;;0.00;0.00;;;;;;;2.70;77.81;99774.06;5091874;28;20548;-71
2021/11/25 03:57:25;;;;;;;0.00;0.00;;;;;;;2.69;77.24;99775.06;5059358;28;20515;-71
2021/11/25 03:59:51;;;;;;;0.00;0.00;;;;;;;2.70;76.96;99775.91;5091838;28;20052;-68
2021/11/25 04:02:19;;;;;;;0.00;0.00;;;;;;;2.63;77.54;99765.34;5091743;28;20020;-71
2021/11/25 04:04:45;;;;;;;0.00;0.00;;;;;;;2.69;77.20;99779.56;5082962;28;20045;-71
2021/11/25 04:07:11;;;;;;;0.00;0.00;;;;;;;2.64;77.28;99766.97;5071662;28;20625;-71
2021/11/25 04:09:38;;;;;;;0.00;0.00;;;;;;;2.68;77.19;99764.72;5071328;28;20028;-72
2021/11/25 04:12:03;;;;;;;0.00;0.00;;;;;;;2.62;77.43;99758.44;5083023;28;20071;-72
2021/11/25 04:14:29;;;;;;;0.00;0.00;;;;;;;2.64;77.53;99763.53;5073020;28;20055;-72
2021/11/25 04:16:54;;;;;;;0.00;0.00;;;;;;;2.72;77.46;99760.63;5091111;28;20505;-72
2021/11/25 04:19:20;;;;;;;0.00;0.00;;;;;;;2.62;77.32;99739.13;5072302;28;20032;-70
2021/11/25 04:21:45;;;;;;;0.00;0.00;;;;;;;2.58;77.09;99746.66;5053949;28;20028;-71
2021/11/25 04:24:12;;;;;;;0.00;0.00;;;;;;;2.52;77.10;99729.81;5054158;28;20028;-71
2021/11/25 04:26:38;;;;;;;0.00;0.00;;;;;;;2.71;77.41;99761.66;5090410;28;20050;-71
2021/11/25 04:29:04;;;;;;;0.00;0.00;;;;;;;2.59;77.40;99750.09;5090876;28;20032;-71
2021/11/25 04:36:58;;;;;;;0.00;0.00;;;;;;;2.54;77.59;99751.53;5091175;28;20114;-70
2021/11/25 04:39:23;;;;;;;0.00;0.00;;;;;;;2.62;77.38;99755.78;5090753;28;20036;-70
2021/11/25 04:41:49;;;;;;;0.00;0.00;;;;;;;2.56;77.67;99748.69;5090735;28;20509;-69
2021/11/25 04:44:14;;;;;;;0.00;0.00;;;;;;;2.52;77.83;99736.94;5090558;28;20028;-69
2021/11/25 04:46:40;;;;;;;0.00;0.00;;;;;;;2.61;78.04;99770.00;5071317;28;20028;-68
2021/11/25 04:49:06;;;;;;;0.00;0.00;;;;;;;2.51;77.56;99745.84;5072316;28;20544;-68
2021/11/25 04:51:32;;;;;;;0.00;0.00;;;;;;;2.52;77.85;99758.06;5070361;28;20036;-67
2021/11/25 04:53:58;;;;;;;0.00;0.00;;;;;;;2.54;77.80;99762.09;5073013;28;20028;-67
2021/11/25 04:56:23;;;;;;;0.00;0.00;;;;;;;2.50;77.71;99770.63;5090572;28;20085;-69
2021/11/25 04:58:49;;;;;;;0.00;0.00;;;;;;;2.43;78.07;99759.25;5090510;28;20043;-69
2021/11/25 05:01:15;;;;;;;0.00;0.00;;;;;;;2.36;78.07;99759.28;5090697;28;20036;-68
2021/11/25 05:03:40;;;;;;;0.00;0.00;;;;;;;2.38;77.85;99762.50;5090124;28;20078;-68
2021/11/25 05:06:06;;;;;;;0.00;0.00;;;;;;;2.26;77.91;99745.66;5090533;28;20036;-68
2021/11/25 05:08:32;;;;;;;0.00;0.00;;;;;;;2.33;78.31;99765.78;5074297;28;20063;-69
2021/11/25 05:10:57;;;;;;;0.00;0.00;;;;;;;2.30;78.18;99758.25;5070879;28;20571;-69
2021/11/25 05:13:23;;;;;;;0.00;0.00;;;;;;;2.29;78.72;99771.66;5070309;28;20035;-68
2021/11/25 05:15:48;;;;;;;0.00;0.00;;;;;;;2.19;78.37;99749.13;5083246;28;20026;-68
2021/11/25 05:18:13;;;;;;;0.00;0.00;;;;;;;2.24;78.95;99762.50;5088755;28;20070;-68
2021/11/25 05:20:39;;;;;;;0.00;0.00;;;;;;;2.23;79.03;99757.44;5085286;28;20050;-69
2021/11/25 05:23:05;;;;;;;0.00;0.00;;;;;;;2.26;79.00;99759.69;5059471;28;20039;-69
2021/11/25 05:25:31;;;;;;;0.00;0.00;;;;;;;2.20;78.81;99766.59;5089334;28;20448;-70
2021/11/25 05:27:57;;;;;;;0.13;0.13;;;;;;;2.18;78.98;99762.53;5085859;28;20089;-72
2021/11/25 05:30:22;;;;;;;0.00;0.00;;;;;;;2.04;79.13;99744.06;5069699;28;20036;-71
2021/11/25 05:32:48;;;;;;;0.00;0.00;;;;;;;2.09;79.73;99759.28;5052601;28;20033;-72
2021/11/25 05:35:16;;;;;;;0.00;0.00;;;;;;;2.15;80.01;99761.13;5070572;28;20537;-72
2021/11/25 05:37:42;;;;;;;0.00;0.00;;;;;;;2.19;80.12;99764.97;5070146;28;20032;-71
2021/11/25 05:40:10;;;;;;;0.00;0.00;;;;;;;2.23;79.67;99760.91;5070736;28;20064;-71
2021/11/25 05:42:36;;;;;;;0.00;0.00;;;;;;;2.28;79.85;99770.84;5074271;28;20040;-71
2021/11/25 05:45:06;;;;;;;0.35;0.35;;;;;;;2.34;79.74;99762.09;5074194;28;20028;-71
2021/11/25 05:47:34;;;;;;;0.00;0.00;;;;;;;2.31;80.34;99741.41;5073827;28;20025;-71
2021/11/25 05:50:00;;;;;;;0.00;0.00;;;;;;;2.45;80.38;99741.41;5074012;28;20052;-71
2021/11/25 05:52:26;;;;;;;0.00;0.00;;;;;;;2.58;80.30;99751.16;5073840;28;20035;-71
2021/11/25 05:54:52;;;;;;;0.00;0.00;;;;;;;2.68;80.07;99747.03;5073912;28;20032;-71
2021/11/25 05:57:17;;;;;;;0.00;0.00;;;;;;;2.76;79.73;99755.75;5056083;28;20111;-71
2021/11/25 05:59:42;;;;;;;0.10;0.10;;;;;;;2.77;80.01;99741.53;5073541;28;20086;-72
2021/11/25 06:02:10;;;;;;;0.00;0.00;;;;;;;2.97;79.67;99758.16;5073895;28;20410;-74
2021/11/25 06:04:35;;;;;;;0.00;0.00;;;;;;;2.96;79.03;99745.16;5073607;28;20457;-73
2021/11/25 06:07:01;;;;;;;0.00;0.00;;;;;;;3.14;79.37;99755.84;5073645;28;20076;-73
2021/11/25 06:09:26;;;;;;;0.00;0.00;;;;;;;3.22;78.62;99744.22;5073274;28;20137;-72
2021/11/25 06:11:52;;;;;;;0.00;0.00;;;;;;;3.23;78.44;99731.84;5073578;28;20479;-72
2021/11/25 06:14:17;;;;;;;0.00;0.00;;;;;;;3.35;77.72;99738.06;5073833;28;20036;-72
2021/11/25 06:16:43;;;;;;;0.00;0.00;;;;;;;3.42;77.32;99746.78;5073545;28;20532;-72
2021/11/25 06:19:09;;;;;;;0.00;0.00;;;;;;;3.58;77.51;99753.41;5073560;28;20060;-72
2021/11/25 06:21:34;;;;;;;0.00;0.00;;;;;;;3.67;77.15;99761.91;5072802;28;20059;-72
2021/11/25 06:24:00;;;;;;;0.00;0.00;;;;;;;3.75;76.89;99747.59;5073529;28;20533;-71
2021/11/25 06:26:25;;;;;;;0.00;0.00;;;;;;;3.84;76.06;99754.28;5072900;28;20103;-71
2021/11/25 06:28:54;;;;;;;0.00;0.00;;;;;;;3.77;75.69;99735.81;5073298;28;20024;-70
2021/11/25 06:31:21;;;;;;;0.00;0.00;;;;;;;3.89;76.17;99741.19;5055626;28;20438;-71
2021/11/25 06:33:46;;;;;;;0.05;0.05;;;;;;;3.99;75.71;99741.53;5072918;28;20035;-71
2021/11/25 06:36:11;;;;;;;0.00;0.00;;;;;;;4.07;75.10;99740.47;5073367;28;20024;-71
2021/11/25 06:38:37;;;;;;;0.10;0.10;;;;;;;4.16;74.79;99739.19;5073028;28;20094;-70
2021/11/25 06:41:07;;;;;;;0.30;0.30;;;;;;;4.25;74.57;99744.22;5073002;28;20024;-71
2021/11/25 06:43:32;;;;;;;0.32;0.32;;;;;;;4.36;74.71;99759.38;5072831;28;20029;-71
2021/11/25 06:45:57;;;;;;;0.00;0.00;;;;;;;4.35;74.44;99738.41;5072863;28;20035;-70
2021/11/25 06:48:23;;;;;;;0.38;0.38;;;;;;;4.51;73.72;99750.28;5055007;28;20059;-71
2021/11/25 06:50:49;;;;;;;0.00;0.00;;;;;;;4.52;73.90;99733.34;5072812;28;20085;-71
2021/11/25 06:53:14;;;;;;;0.00;0.00;;;;;;;4.61;73.74;99732.88;5072522;28;20020;-71
2021/11/25 06:55:39;;;;;;;0.10;0.10;;;;;;;4.76;73.25;99743.09;5072817;28;20039;-71
2021/11/25 06:58:05;;;;;;;0.17;0.17;;;;;;;4.87;72.49;99746.03;5055038;28;20036;-73
2021/11/25 07:00:31;;;;;;;0.10;0.10;;;;;;;4.94;72.36;99749.41;5072549;28;20039;-73
2021/11/25 07:02:56;;;;;;;0.15;0.15;;;;;;;5.01;71.64;99742.22;5072830;28;20588;-71
2021/11/25 07:05:23;;;;;;;0.00;0.00;;;;;;;5.12;71.72;99756.56;5072416;28;20044;-71
2021/11/25 07:07:48;;;;;;;0.00;0.00;;;;;;;5.09;70.65;99733.97;5054472;28;20058;-71
2021/11/25 07:10:14;;;;;;;0.10;0.10;;;;;;;5.24;70.93;99746.81;5072829;28;20036;-72
2021/11/25 07:12:41;;;;;;;0.00;0.00;;;;;;;5.31;70.86;99749.41;5072488;28;20150;-72
2021/11/25 07:15:09;;;;;;;0.00;0.00;;;;;;;5.29;70.24;99731.03;5072426;28;20595;-72
2021/11/25 07:17:35;;;;;;;0.00;0.00;;;;;;;5.34;69.92;99732.22;5054412;28;20052;-71
2021/11/25 07:20:02;;;;;;;0.75;0.75;;;;;;;5.36;70.02;99730.16;5072602;28;20742;-72
2021/11/25 07:22:29;;;;;;;0.13;0.13;;;;;;;5.49;70.83;99729.16;5072252;28;20029;-72
2021/11/25 07:24:54;;;;;;;0.00;0.00;;;;;;;5.58;70.19;99733.94;5072480;28;20028;-73
2021/11/25 07:27:20;;;;;;;0.00;0.00;;;;;;;5.66;69.38;99737.31;5072495;28;20159;-71
2021/11/25 07:29:45;;;;;;;0.00;0.00;;;;;;;5.71;69.70;99732.94;5071773;28;20548;-72
2021/11/25 07:32:11;;;;;;;0.28;0.28;;;;;;;5.86;69.26;99742.31;5072334;28;20103;-72
2021/11/25 07:34:36;;;;;;;0.00;0.00;;;;;;;5.93;69.15;99738.53;5072063;28;20215;-72
2021/11/25 07:37:03;;;;;;;0.00;0.00;;;;;;;6.02;68.55;99743.53;5072107;28;20074;-71
2021/11/25 07:39:29;;;;;;;0.00;0.00;;;;;;;5.96;68.54;99725.81;5071358;28;20400;-71
2021/11/25 07:41:55;;;;;;;0.00;0.00;;;;;;;6.18;68.46;99747.38;5072012;28;20570;-71
2021/11/25 07:44:21;;;;;;;0.00;0.00;;;;;;;6.21;68.79;99739.75;5072009;28;20086;-71
2021/11/25 07:46:46;;;;;;;0.00;0.00;;;;;;;6.33;68.52;99746.91;5072069;28;20467;-71
2021/11/25 07:49:12;;;;;;;0.00;0.00;;;;;;;6.28;67.44;99736.19;5071888;28;20434;-71
2021/11/25 07:51:37;;;;;;;0.00;0.00;;;;;;;6.49;67.52;99754.19;5071652;28;20029;-72
2021/11/25 07:54:08;;;;;;;0.00;0.00;;;;;;;6.54;67.35;99751.66;5071593;28;20032;-72
2021/11/25 07:56:33;;;;;;;0.00;0.00;;;;;;;6.66;67.51;99745.53;5071669;28;20029;-71
2021/11/25 07:58:59;;;;;;;0.00;0.00;;;;;;;6.68;66.53;99749.56;5071446;28;20035;-73
2021/11/25 08:01:24;;;;;;;0.00;0.00;;;;;;;6.71;67.16;99735.00;5071692;28;20479;-71
2021/11/25 08:03:50;;;;;;;0.13;0.13;;;;;;;6.89;66.67;99750.00;5070766;28;20484;-71
2021/11/25 08:06:15;;;;;;;0.00;0.00;;;;;;;6.83;66.37;99729.66;5071329;28;20039;-71
2021/11/25 08:08:42;;;;;;;0.00;0.00;;;;;;;6.93;66.63;99734.38;5071016;28;20029;-72
2021/11/25 08:11:08;;;;;;;0.00;0.00;;;;;;;7.00;65.68;99741.19;5053511;28;20033;-71
2021/11/25 08:13:34;;;;;;;0.00;0.00;;;;;;;6.98;65.28;99724.69;5071279;28;20032;-72
2021/11/25 08:15:59;;;;;;;0.10;0.10;;;;;;;7.05;65.49;99730.69;5053758;28;20028;-72
2021/11/25 08:18:25;;;;;;;0.00;0.00;;;;;;;7.12;65.90;99727.88;5071360;28;20030;-72
2021/11/25 08:20:51;;;;;;;0.00;0.00;;;;;;;7.22;65.14;99727.25;5071172;28;20376;-72
2021/11/25 08:23:17;;;;;;;0.10;0.10;;;;;;;7.27;64.84;99739.84;5071184;28;20476;-71
2021/11/25 08:25:43;;;;;;;0.00;0.00;;;;;;;7.21;64.57;99722.97;5070706;28;20024;-73
2021/11/25 08:28:08;;;;;;;0.47;0.47;;;;;;;7.18;64.75;99710.97;5071430;28;20107;-71
2021/11/25 08:30:35;;;;;;;0.00;0.00;;;;;;;7.29;64.82;99716.50;5052790;28;20479;-71
2021/11/25 08:33:00;;;;;;;0.50;0.50;;;;;;;7.38;64.55;99725.69;5071285;28;20036;-72
2021/11/25 08:35:26;;;;;;;0.10;0.10;;;;;;;7.41;64.44;99727.88;5071235;28;20026;-72
2021/11/25 08:37:53;;;;;;;0.10;0.10;;;;;;;7.36;64.40;99711.81;5070668;28;20028;-72
2021/11/25 08:40:19;;;;;;;0.00;0.00;;;;;;;7.45;63.73;99713.03;5070973;28;20029;-72
2021/11/25 08:42:46;;;;;;;0.20;0.20;;;;;;;7.54;63.74;99718.78;5070917;28;20024;-73
2021/11/25 08:45:14;;;;;;;0.00;0.00;;;;;;;7.59;63.86;99715.41;5071183;28;20169;-71
2021/11/25 08:47:39;;;;;;;0.00;0.00;;;;;;;7.59;63.01;99699.44;5070554;28;20411;-72
2021/11/25 08:50:07;;;;;;;0.10;0.10;;;;;;;7.64;63.18;99705.66;5071030;28;20032;-72
2021/11/25 08:52:33;;;;;;;0.00;0.00;;;;;;;7.66;63.19;99706.22;5070883;28;20032;-72
2021/11/25 08:54:58;;;;;;;0.13;0.13;;;;;;;7.68;63.18;99698.00;5070961;28;20533;-72
2021/11/25 08:57:24;;;;;;;0.03;0.03;;;;;;;7.73;62.43;99686.66;5070911;28;20033;-72
2021/11/25 08:59:49;;;;;;;0.00;0.00;;;;;;;7.87;62.20;99695.91;5052720;28;20024;-72
2021/11/25 09:02:15;;;;;;;1.30;1.20;;;;;;;7.92;60.51;99697.84;5070536;28;20457;-71
2021/11/25 09:04:40;;;;;;;0.17;0.17;;;;;;;7.81;59.79;99668.41;5070377;28;20048;-71
2021/11/25 09:07:06;;;;;;;0.20;0.20;;;;;;;7.86;60.19;99678.34;5071100;28;20481;-74
2021/11/25 09:09:31;;;;;;;0.17;0.17;;;;;;;7.94;59.27;99675.25;5052759;28;20468;-72
2021/11/25 09:11:57;;;;;;;0.32;0.32;;;;;;;7.94;59.42;99669.91;5070377;28;20059;-72
2021/11/25 09:14:22;;;;;;;0.30;0.30;;;;;;;7.98;59.95;99660.41;5070887;28;20111;-71
2021/11/25 09:16:49;;;;;;;0.20;0.20;;;;;;;7.94;59.44;99651.28;5073239;28;20071;-72
2021/11/25 09:19:14;;;;;;;0.08;0.08;;;;;;;8.04;59.16;99649.84;5074885;28;20123;-72
2021/11/25 09:21:40;;;;;;;0.03;0.03;;;;;;;8.05;58.47;99657.56;5074673;28;20063;-72
2021/11/25 09:24:06;;;;;;;0.00;0.00;;;;;;;8.06;58.99;99639.75;5074819;28;20028;-72
2021/11/25 09:26:34;;;;;;;0.10;0.10;;;;;;;8.17;59.22;99644.16;5074784;28;20029;-72
2021/11/25 09:29:00;;;;;;;0.93;0.93;;;;;;;8.14;59.09;99632.13;5074598;28;20047;-72
2021/11/25 09:31:28;;;;;;;0.00;0.00;;;;;;;8.08;58.17;99622.47;5074598;28;20024;-72
2021/11/25 09:33:54;;;;;;;0.00;0.00;;;;;;;8.31;57.82;99634.78;5074367;28;20036;-72
2021/11/25 09:36:20;;;;;;;0.10;0.10;;;;;;;8.30;56.67;99635.00;5074426;28;20036;-71
2021/11/25 09:38:46;;;;;;;0.00;0.00;;;;;;;8.26;57.28;99617.91;5074061;28;20025;-72
2021/11/25 09:41:12;;;;;;;0.00;0.00;;;;;;;8.28;56.65;99624.59;5074528;28;20482;-72
2021/11/25 09:43:37;;;;;;;0.00;0.00;;;;;;;8.35;57.00;99624.41;5073810;28;20074;-72
2021/11/25 09:46:04;;;;;;;0.17;0.17;;;;;;;8.34;56.27;99626.25;5074209;28;20024;-71
2021/11/25 09:48:29;;;;;;;0.00;0.00;;;;;;;8.29;56.75;99615.53;5074124;28;20032;-72
2021/11/25 09:50:56;;;;;;;0.45;0.45;;;;;;;8.35;57.12;99616.44;5073786;28;20028;-72
2021/11/25 09:53:24;;;;;;;0.00;0.00;;;;;;;8.41;56.45;99614.63;5074163;28;20032;-72
2021/11/25 09:55:52;;;;;;;0.00;0.00;;;;;;;8.45;56.34;99610.41;5073821;28;20031;-72
2021/11/25 09:58:20;;;;;;;0.00;0.00;;;;;;;8.39;56.67;99601.53;5073906;28;20112;-72
2021/11/25 10:00:50;;;;;;;0.17;0.17;;;;;;;8.46;55.50;99596.03;5073368;28;20103;-73
2021/11/25 10:03:17;;;;;;;0.00;0.00;;;;;;;8.46;55.41;99591.53;5073783;28;20032;-72
2021/11/25 10:05:52;;;;;;;0.00;0.00;;;;;;;8.62;55.01;99594.38;5073782;28;20029;-72
2021/11/25 10:08:34;;;;;;;0.00;0.00;;;;;;;8.67;54.81;99593.63;5073740;28;20113;-72
2021/11/25 10:11:22;;;;;;;0.00;0.00;;;;;;;8.69;54.30;99600.34;5073171;28;20031;-72
2021/11/25 10:13:55;;;;;;;0.00;0.00;;;;;;;8.65;54.48;99569.88;5073170;28;20625;-72
2021/11/25 10:16:29;;;;;;;0.00;0.00;;;;;;;8.73;53.06;99568.66;5073782;28;20033;-72
2021/11/25 10:19:11;;;;;;;0.00;0.00;;;;;;;8.70;53.51;99563.81;5073207;28;20564;-71
2021/11/25 10:21:40;;;;;;;0.20;0.20;;;;;;;8.76;53.85;99571.63;5073345;28;20031;-71
2021/11/25 10:24:05;;;;;;;0.00;0.00;;;;;;;8.81;54.01;99563.66;5073557;28;20020;-71
2021/11/25 10:26:33;;;;;;;0.00;0.00;;;;;;;8.89;54.12;99558.94;5073141;28;20056;-72
2021/11/25 10:29:01;;;;;;;0.00;0.00;;;;;;;8.92;53.15;99574.44;5073290;28;20043;-71
2021/11/25 10:31:36;;;;;;;0.00;0.00;;;;;;;8.92;51.13;99566.41;5055439;28;20036;-71
2021/11/25 10:34:09;;;;;;;0.00;0.00;;;;;;;8.91;50.42;99562.97;5073426;28;20111;-71
2021/11/25 10:41:59;;;;;;;0.00;0.00;;;;;;;9.00;51.33;99525.97;5073041;28;20496;-72
2021/11/25 10:44:35;;;;;;;0.10;0.10;;;;;;;9.14;50.89;99542.34;5072787;28;20115;-72
2021/11/25 10:47:07;;;;;;;0.00;0.00;;;;;;;9.18;50.90;99532.78;5072726;28;20427;-72
2021/11/25 10:49:34;;;;;;;0.00;0.00;;;;;;;9.23;50.64;99521.34;5072546;28;20509;-72
2021/11/25 10:52:01;;;;;;;0.00;0.00;;;;;;;9.22;50.82;99509.06;5072978;28;20072;-72
2021/11/25 10:54:27;;;;;;;0.20;0.20;;;;;;;9.35;50.73;99515.81;5072955;28;20513;-73
2021/11/25 10:56:57;;;;;;;0.00;0.00;;;;;;;9.35;50.24;99497.13;5054637;28;20067;-72
2021/11/25 10:59:42;;;;;;;0.00;0.00;;;;;;;9.45;50.75;99506.00;5072919;28;20028;-72
2021/11/25 11:02:29;;;;;;;0.00;0.00;;;;;;;9.57;50.40;99515.69;5072832;28;20060;-72
2021/11/25 11:04:57;;;;;;;0.17;0.17;;;;;;;9.49;50.63;99484.94;5072480;28;20089;-71
2021/11/25 11:07:28;;;;;;;0.00;0.00;;;;;;;9.68;50.71;99511.22;5072927;28;20047;-73
2021/11/25 11:09:55;;;;;;;0.00;0.00;;;;;;;9.65;50.54;99493.84;5072362;28;20043;-73
2021/11/25 11:12:35;;;;;;;0.00;0.00;;;;;;;9.64;50.58;99499.47;5072721;28;20115;-71
2021/11/25 11:15:33;;;;;;;0.00;0.00;;;;;;;9.64;50.89;99500.25;5072468;28;20036;-72
2021/11/25 11:20:32;;;;;;;0.10;0.10;;;;;;;9.52;50.11;99468.44;5072170;28;20034;-72
2021/11/25 11:23:03;;;;;;;0.00;0.00;;;;;;;9.45;50.46;99471.31;5072236;28;20047;-75
2021/11/25 11:25:33;;;;;;;0.00;0.00;;;;;;;9.44;50.23;99471.56;5072399;28;20093;-72
2021/11/25 11:27:59;;;;;;;0.00;0.00;;;;;;;9.34;50.51;99461.63;5072049;28;20033;-72
2021/11/25 11:30:26;;;;;;;0.00;0.00;;;;;;;9.39;51.13;99475.00;5072545;28;20036;-72
2021/11/25 11:32:53;;;;;;;0.00;0.00;;;;;;;9.38;51.36;99477.94;5072317;28;20028;-72
2021/11/25 11:35:22;;;;;;;0.00;0.00;;;;;;;9.29;50.90;99453.59;5072166;28;20024;-72
2021/11/25 11:37:49;;;;;;;0.00;0.00;;;;;;;9.37;51.47;99457.66;5071339;28;20020;-73
2021/11/25 11:40:14;;;;;;;0.00;0.00;;;;;;;9.45;51.68;99463.31;5053705;28;20393;-72
2021/11/25 11:42:41;;;;;;;0.00;0.00;;;;;;;9.50;51.57;99454.53;5072075;28;20040;-70
2021/11/25 11:45:07;;;;;;;0.00;0.00;;;;;;;9.48;51.76;99439.81;5071777;28;20088;-72
2021/11/25 11:47:34;;;;;;;0.00;0.00;;;;;;;9.57;51.43;99444.41;5071963;28;20029;-72
2021/11/25 11:50:10;;;;;;;0.00;0.00;;;;;;;9.68;50.56;99441.78;5071494;28;20028;-71
2021/11/25 11:52:53;;;;;;;0.00;0.00;;;;;;;9.58;49.26;99437.19;5070584;28;20025;-72